Latest Weather Observations for Glen Innes Airport

IDN60801

Issued at 3:35 pm EDT Wednesday 22 October 2014 (issued every 30 minutes, with the page automatically refreshed every 10 minutes)

About weather observations | Map of weather stations | Latest weather observations for NSW | Other Formats
Station Details ID: 056243 Name: GLEN INNES AIRPORT AWS Lat: -29.68 Lon: 151.69 Height: 1044.3 m
Data from the previous 72 hours. | See also: Recent months for locations in New South Wales
Date/Time
EDT
Temp
°C
App
Temp
°C
Dew
Point
Rel
Hum
%
Delta-T
°C
Wind Press
QNH
hPa
Press
MSL
hPa
Rain
since 9 am
mm
Dir
 
Spd
km/h
Gust
km/h
Spd
kts
Gust
kts
22/03:30pm 20.6 18.1 8.3 45 6.7 ENE 11 19 6 10 1023.5 1020.8 0.0
22/03:00pm 21.4 19.9 9.3 46 6.8 ESE 7 15 4 8 1023.9 1021.2 0.0
22/02:30pm 19.9 17.7 7.9 46 6.5 NE 9 20 5 11 1024.4 1021.7 0.0
22/02:00pm 19.9 17.7 9.5 51 5.8 NE 11 20 6 11 1024.8 1022.1 0.0
22/01:30pm 18.8 17.1 8.5 51 5.6 WSW 7 15 4 8 1025.5 1022.8 0.0
22/01:00pm 18.2 16.0 7.9 51 5.5 NNE 9 19 5 10 1026.1 1023.5 0.0
22/12:30pm 17.8 14.6 8.6 55 5.0 E 15 22 8 12 1026.7 1024.1 0.0
22/12:00pm 17.1 14.7 8.5 57 4.6 E 11 26 6 14 1027.2 1024.6 0.0
22/11:30am 15.9 12.9 7.7 58 4.3 E 13 22 7 12 1027.7 1025.1 0.0
22/11:00am 15.4 11.9 8.6 64 3.6 ENE 17 24 9 13 1027.8 1025.2 0.0
22/10:30am 14.6 10.6 8.3 66 3.3 E 19 26 10 14 1028.0 1025.4 0.0
22/10:00am 14.0 10.6 9.2 73 2.6 E 17 24 9 13 1028.1 1025.5 0.0
22/09:30am 12.7 8.7 8.2 74 2.4 ESE 19 26 10 14 1028.0 1025.4 0.0
22/09:00am 12.4 8.2 8.1 75 2.2 E 20 30 11 16 1027.9 1025.3 0.0
22/08:30am 10.6 6.2 7.3 80 1.7 ESE 20 30 11 16 1027.7 1025.1 0.0
22/08:00am 10.0 4.9 7.6 85 1.2 ESE 24 30 13 16 1027.5 1024.9 0.0
22/07:30am 9.4 4.6 7.5 88 1.0 E 22 30 12 16 1027.5 1024.9 0.0
22/07:00am 9.0 3.5 7.6 91 0.7 E 26 33 14 18 1027.2 1024.6 0.0
22/06:30am 9.0 3.5 7.6 91 0.7 E 26 33 14 18 1027.1 1024.5 0.0
22/06:00am 8.9 4.1 7.5 91 0.7 E 22 30 12 16 1026.8 1024.2 0.0
22/05:30am 8.7 4.0 7.6 93 0.6 ESE 22 32 12 17 1026.7 1024.1 0.0
22/05:00am 8.6 3.8 7.4 92 0.6 ESE 22 28 12 15 1026.7 1024.1 0.0
22/04:30am 7.5 3.9 6.9 96 0.3 E 15 19 8 10 1026.8 1024.2 0.0
22/04:00am 8.3 2.9 6.4 88 0.9 ESE 24 33 13 18 1026.8 1024.2 0.0
22/03:30am 9.0 3.4 7.3 89 0.9 E 26 33 14 18 1027.0 1024.4 0.0
22/03:00am 8.1 5.1 7.8 98 0.2 ESE 13 20 7 11 1027.5 1024.9 0.0
22/02:30am 6.8 3.3 5.6 92 0.6 E 13 15 7 8 1027.7 1025.1 0.0
22/02:00am 8.9 5.0 7.2 89 0.8 E 17 20 9 11 1028.0 1025.4 0.0
22/01:30am 9.7 5.2 7.1 84 1.3 E 20 26 11 14 1028.5 1025.9 0.0
22/01:00am 10.0 5.3 7.9 87 1.1 E 22 30 12 16 1028.8 1026.2 0.0
22/12:30am 9.8 5.2 8.1 89 0.9 E 22 32 12 17 1029.0 1026.4 0.0
22/12:00am 9.8 4.9 8.4 91 0.7 E 24 35 13 19 1029.3 1026.8 0.0
 
Date/Time
EDT
Temp
°C
App
Temp
°C
Dew
Point
Rel
Hum
%
Delta-T
°C
Wind Press
QNH
hPa
Press
MSL
hPa
Rain
since 9 am
mm
Dir
 
Spd
km/h
Gust
km/h
Spd
kts
Gust
kts
21/11:30pm 9.2 5.1 8.0 92 0.6 E 19 24 10 13 1029.6 1027.0 0.0
21/11:00pm 9.3 4.6 7.9 91 0.7 ESE 22 30 12 16 1029.6 1027.0 0.0
21/10:30pm 9.4 4.6 7.5 88 1.0 ESE 22 28 12 15 1029.7 1027.1 0.0
21/10:00pm 9.9 5.1 7.3 84 1.3 ESE 22 35 12 19 1029.7 1027.1 0.0
21/09:30pm 10.0 5.6 7.3 83 1.4 E 20 24 11 13 1029.5 1026.9 0.0
21/09:00pm 10.4 6.5 7.3 81 1.6 E 17 24 9 13 1029.2 1026.7 0.0
21/08:30pm 11.4 6.3 7.5 77 2.0 E 24 33 13 18 1029.0 1026.4 0.0
21/08:00pm 12.4 7.6 7.5 72 2.5 E 22 30 12 16 1028.7 1026.1 0.0
21/07:30pm 13.3 9.1 7.5 68 3.0 E 19 24 10 13 1028.2 1025.7 0.0
21/07:00pm 14.4 10.6 7.7 64 3.5 E 17 22 9 12 1027.8 1025.2 0.0
21/06:30pm 16.3 12.1 8.3 59 4.3 E 20 26 11 14 1027.6 1025.0 0.0
21/06:00pm 15.7 11.7 8.2 61 4.0 E 19 24 10 13 1027.6 1025.0 0.0
21/05:30pm 16.3 11.7 8.0 58 4.4 E 22 28 12 15 1027.6 1025.0 0.0
21/05:00pm 18.2 14.0 8.2 52 5.4 E 20 28 11 15 1027.2 1024.6 0.0
21/04:30pm 19.0 14.3 7.8 48 6.0 ESE 22 26 12 14 1027.1 1024.5 0.0
21/04:00pm 19.4 15.4 8.1 48 6.1 E 19 28 10 15 1027.2 1024.6 0.0
21/03:30pm 19.4 16.4 7.8 47 6.3 E 13 22 7 12 1027.6 1025.0 0.0
21/03:00pm 20.1 17.1 9.4 50 6.0 ENE 15 24 8 13 1027.9 1025.3 0.0
21/02:30pm 19.1 16.0 7.2 46 6.4 ENE 13 24 7 13 1028.2 1025.7 0.0
21/02:00pm 18.8 15.7 7.3 47 6.1 E 13 22 7 12 1028.7 1026.1 0.0
21/01:30pm 18.5 15.2 7.9 50 5.7 ESE 15 22 8 12 1029.1 1026.6 0.0
21/01:00pm 17.9 14.8 8.7 55 5.0 ENE 15 24 8 13 1029.7 1027.1 0.0
21/12:30pm 17.4 14.2 8.3 55 4.9 E 15 22 8 12 1030.0 1027.5 0.0
21/12:00pm 16.6 12.6 8.3 58 4.4 E 19 28 10 15 1030.3 1027.8 0.0
21/11:30am 15.9 11.8 8.6 62 3.9 E 20 32 11 17 1030.6 1028.0 0.0
21/11:00am 14.4 9.3 7.7 64 3.5 E 24 32 13 17 1030.8 1028.3 0.0
21/10:30am 14.1 9.1 7.9 66 3.3 E 24 30 13 16 1030.7 1028.1 0.0
21/10:00am 13.8 8.4 8.2 69 2.9 E 26 33 14 18 1030.8 1028.3 0.0
21/09:30am 13.6 8.3 8.4 71 2.7 E 26 39 14 21 1030.5 1027.9 0.0
21/09:00am 13.1 7.4 8.2 72 2.6 E 28 35 15 19 1030.2 1027.7 0.0
21/08:30am 12.9 6.7 8.0 72 2.6 ESE 30 35 16 19 1030.0 1027.5 0.0
21/08:00am 12.1 6.3 7.8 75 2.2 E 28 35 15 19 1029.6 1027.0 0.0
21/07:30am 12.0 6.5 9.0 82 1.6 E 28 41 15 22 1029.3 1026.8 0.0
21/07:00am 11.3 6.9 8.9 85 1.3 E 22 32 12 17 1029.0 1026.4 0.0
21/06:30am 11.2 6.8 8.9 86 1.2 E 22 28 12 15 1028.7 1026.1 0.0
21/06:00am 11.3 5.8 9.2 87 1.1 E 28 33 15 18 1028.5 1025.9 0.0
21/05:30am 11.4 6.4 9.5 88 1.0 E 26 32 14 17 1028.2 1025.7 0.0
21/05:00am 11.3 6.7 9.7 90 0.9 E 24 35 13 19 1028.0 1025.4 0.0
21/04:30am 11.3 7.5 9.7 90 0.9 E 20 30 11 16 1028.0 1025.4 0.0
21/04:00am 11.0 7.8 9.9 93 0.6 E 17 22 9 12 1028.1 1025.5 0.0
21/03:30am 11.4 8.1 9.7 89 0.9 E 17 20 9 11 1028.1 1025.5 0.0
21/03:00am 11.6 7.9 10.0 90 0.9 E 20 26 11 14 1028.2 1025.7 0.0
21/02:30am 11.4 7.8 10.0 91 0.8 E 19 28 10 15 1028.2 1025.7 0.0
21/02:00am 11.3 7.5 9.9 91 0.7 E 20 28 11 15 1028.5 1025.9 0.0
21/01:30am 12.4 7.8 9.8 84 1.4 E 24 32 13 17 1028.8 1026.2 0.0
21/01:00am 12.6 8.1 10.0 84 1.4 E 24 32 13 17 1029.0 1026.4 0.0
21/12:30am 12.7 8.2 10.2 85 1.4 E 24 30 13 16 1029.2 1026.7 0.0
21/12:00am 13.1 8.4 10.5 84 1.4 E 26 35 14 19 1029.3 1026.8 0.0
 
Date/Time
EDT
Temp
°C
App
Temp
°C
Dew
Point
Rel
Hum
%
Delta-T
°C
Wind Press
QNH
hPa
Press
MSL
hPa
Rain
since 9 am
mm
Dir
 
Spd
km/h
Gust
km/h
Spd
kts
Gust
kts
20/11:30pm 13.3 9.0 10.8 85 1.4 E 24 35 13 19 1029.6 1027.0 0.0
20/11:00pm 13.8 8.8 11.0 83 1.6 E 28 35 15 19 1029.6 1027.0 0.0
20/10:30pm 13.5 9.9 11.7 89 1.0 E 22 32 12 17 1029.3 1026.8 0.0
20/10:00pm 14.0 9.9 11.3 84 1.5 E 24 35 13 19 1029.1 1026.6 0.0
20/09:30pm 14.5 8.7 11.5 82 1.7 E 33 43 18 23 1028.6 1026.0 0.0
20/09:00pm 14.9 9.7 11.7 81 1.8 E 30 37 16 20 1028.1 1025.5 0.0
20/08:30pm 15.4 11.4 11.8 79 2.1 E 24 37 13 20 1027.6 1025.0 0.0
20/08:00pm 15.9 11.3 11.1 73 2.7 E 26 35 14 19 1027.5 1024.9 0.0
20/07:30pm 16.8 12.0 10.2 65 3.7 E 26 39 14 21 1027.0 1024.4 0.0
20/07:00pm 18.3 12.3 8.6 53 5.3 E 30 39 16 21 1026.4 1023.7 0.0
20/06:30pm 20.3 14.4 7.3 43 7.0 E 28 35 15 19 1025.9 1023.3 0.0
20/06:00pm 21.9 15.5 7.0 38 8.0 E 30 37 16 20 1025.6 1022.9 0.0
20/05:30pm 23.0 16.5 6.7 35 8.8 E 30 37 16 20 1025.3 1022.6 0.0
20/05:00pm 24.0 17.0 5.8 31 9.7 E 32 37 17 20 1025.0 1022.4 0.0
20/04:30pm 25.0 18.7 5.7 29 10.4 ENE 28 37 15 20 1024.9 1022.3 0.0
20/04:00pm 25.5 19.0 4.6 26 11.0 E 28 39 15 21 1024.7 1022.0 0.0
20/03:30pm 26.3 20.3 5.3 26 11.3 E 26 37 14 20 1024.7 1022.0 0.0
20/03:00pm 26.4 19.4 1.7 20 12.4 SE 28 33 15 18 1024.9 1022.3 0.0
20/02:30pm 26.4 20.8 0.9 19 12.7 S 20 32 11 17 1025.3 1022.6 0.0
20/02:00pm 26.0 21.7 3.3 23 11.7 S 15 26 8 14 1025.7 1023.1 0.0
20/01:30pm 26.4 21.1 3.0 22 12.1 SSE 20 28 11 15 1026.0 1023.4 0.0
20/01:00pm 25.8 19.5 1.8 21 12.0 SE 24 37 13 20 1026.4 1023.7 0.0
20/12:30pm 25.4 20.2 3.4 24 11.4 SE 20 32 11 17 1026.7 1024.1 0.0
20/12:00pm 24.4 18.6 2.5 24 11.0 ESE 22 35 12 19 1027.1 1024.5 0.0
20/11:30am 24.8 22.0 7.0 32 9.8 SE 11 22 6 12 1027.6 1025.0 0.0
20/11:00am 23.5 19.7 5.9 32 9.4 S 15 22 8 12 1028.0 1025.4 0.0
20/10:30am 22.5 17.4 4.1 30 9.5 SSW 20 26 11 14 1028.2 1025.7 0.0
20/10:00am 21.0 18.4 6.2 38 7.8 SW 9 17 5 9 1028.2 1025.7 0.0
20/09:30am 19.6 15.8 7.4 45 6.6 SW 17 24 9 13 1028.3 1025.8 0.0
20/09:00am 17.7 14.1 6.9 49 5.7 WSW 15 20 8 11 1028.2 1025.7 0.0
20/08:30am 16.0 13.6 8.7 62 3.9 W 11 17 6 9 1028.0 1025.4 0.0
20/08:00am 13.3 12.9 9.9 80 1.8 SSE 2 7 1 4 1028.0 1025.4 0.0
20/07:30am 9.3 9.1 9.2 99 0.1 CALM 0 0 0 0 1027.8 1025.2 0.0
20/07:00am 5.8 3.5 5.8 100 0.0 SE 7 7 4 4 1027.5 1024.9 0.0
20/06:30am 3.7 1.0 3.7 100 0.0 E 7 11 4 6 1027.1 1024.5 0.0
20/06:00am 3.3 0.7 3.3 100 0.0 ESE 6 7 3 4 1026.9 1024.3 0.0
20/05:30am 3.0 0.4 3.0 100 0.0 ESE 6 7 3 4 1026.7 1024.1 0.0
20/05:00am 2.9 0.0 2.6 98 0.1 ESE 7 9 4 5 1026.6 1024.0 0.0
20/04:30am 4.0 1.4 4.0 100 0.0 ESE 7 9 4 5 1026.4 1023.7 0.0
20/04:00am 4.8 1.9 4.7 99 0.0 E 9 11 5 6 1026.4 1023.7 0.0
20/03:30am 5.3 2.1 5.3 100 0.0 E 11 11 6 6 1026.6 1024.0 0.0
20/03:00am 4.6 1.6 4.2 97 0.2 SE 9 11 5 6 1026.8 1024.2 0.0
20/02:30am 6.0 3.7 5.9 99 0.0 SE 7 11 4 6 1027.0 1024.4 0.0
20/02:00am 5.4 2.6 5.3 99 0.0 SE 9 11 5 6 1027.1 1024.5 0.0
20/01:30am 5.7 2.9 5.3 97 0.2 ESE 9 11 5 6 1027.5 1024.9 0.0
20/01:00am 6.8 4.2 6.1 95 0.3 ESE 9 11 5 6 1027.9 1025.3 0.0
20/12:30am 7.6 4.8 6.9 95 0.3 SE 11 13 6 7 1028.2 1025.7 0.0
20/12:00am 7.9 4.7 6.8 93 0.5 SE 13 13 7 7 1028.5 1025.9 0.0
 
Date/Time
EDT
Temp
°C
App
Temp
°C
Dew
Point
Rel
Hum
%
Delta-T
°C
Wind Press
QNH
hPa
Press
MSL
hPa
Rain
since 9 am
mm
Dir
 
Spd
km/h
Gust
km/h
Spd
kts
Gust
kts
19/11:30pm 8.5 5.5 6.1 85 1.2 SE 11 13 6 7 1028.6 1026.0 0.0
19/11:00pm 9.4 6.4 5.9 79 1.7 SE 11 11 6 6 1028.3 1025.8 0.0
19/10:30pm 9.3 6.0 6.4 82 1.4 SE 13 15 7 8 1028.5 1025.9 0.0
19/10:00pm 10.2 7.0 6.7 79 1.7 SE 13 15 7 8 1028.2 1025.7 0.0
19/09:30pm 10.7 7.5 6.8 77 2.0 SE 13 15 7 8 1027.9 1025.3 0.0
19/09:00pm 11.3 8.6 7.2 76 2.1 SE 11 13 6 7 1027.7 1025.1 0.0
19/08:30pm 12.0 9.2 6.9 71 2.6 ESE 11 13 6 7 1027.2 1024.6 0.0
19/08:00pm 13.1 10.2 6.5 64 3.3 E 11 13 6 7 1026.9 1024.3 0.0
19/07:30pm 15.2 10.9 7.0 58 4.3 ESE 19 20 10 11 1026.5 1023.8 0.0
19/07:00pm 19.7 16.2 1.2 29 8.8 S 9 11 5 6 1025.9 1023.3 0.0
19/06:30pm 21.2 17.7 1.0 26 9.7 S 9 13 5 7 1025.6 1022.9 0.0
19/06:00pm 22.1 17.7 0.6 24 10.3 S 13 17 7 9 1025.5 1022.8 0.0
19/05:30pm 22.4 17.6 0.3 23 10.6 SSE 15 20 8 11 1025.3 1022.6 0.0
19/05:00pm 22.9 19.0 1.3 24 10.5 WSW 11 17 6 9 1025.1 1022.5 0.0
19/04:30pm 22.6 18.6 0.4 23 10.7 SE 11 15 6 8 1025.3 1022.6 0.0
19/04:00pm 22.9 20.0 2.4 26 10.2 WSW 7 11 4 6 1025.3 1022.6 0.0

Other Formats:

Comma delimited format used in spreadsheet applications
http://www.bom.gov.au/fwo/IDN60801/IDN60801.94588.axf

JavaScript Object Notation format (JSON) in row-major order
http://www.bom.gov.au/fwo/IDN60801/IDN60801.94588.json